createdAt,value
2019-03-17T00:00:36.247Z,0
2019-03-17T00:01:18.252Z,0
2019-03-17T00:01:59.100Z,0
2019-03-17T00:02:40.522Z,0
2019-03-17T00:03:20.908Z,0
2019-03-17T00:04:03.595Z,0
2019-03-17T00:04:44.005Z,0
2019-03-17T00:05:24.312Z,0
2019-03-17T00:06:07.702Z,0
2019-03-17T00:06:48.757Z,0
2019-03-17T00:07:29.280Z,0
2019-03-17T00:08:10.487Z,0
2019-03-17T00:08:51.161Z,0
2019-03-17T00:09:34.184Z,0
2019-03-17T00:10:17.968Z,0
2019-03-17T00:11:02.028Z,0
2019-03-17T00:11:42.173Z,0
2019-03-17T00:12:22.712Z,0
2019-03-17T00:13:08.118Z,0
2019-03-17T00:13:48.389Z,0
2019-03-17T00:14:32.101Z,0
2019-03-17T00:15:12.374Z,0
2019-03-17T00:15:53.122Z,0
2019-03-17T00:16:35.643Z,0
2019-03-17T00:17:16.340Z,0
2019-03-17T00:17:56.720Z,0
2019-03-17T00:18:39.057Z,0
2019-03-17T00:19:20.384Z,0
2019-03-17T00:20:03.264Z,0
2019-03-17T00:20:45.564Z,0
2019-03-17T00:21:25.862Z,0
2019-03-17T00:22:06.726Z,0
2019-03-17T00:22:47.189Z,0
2019-03-17T00:23:27.748Z,0
2019-03-17T00:24:10.780Z,0
2019-03-17T00:24:53.820Z,0
2019-03-17T00:25:34.191Z,0
2019-03-17T00:26:15.512Z,0
2019-03-17T00:26:55.965Z,0
2019-03-17T00:27:36.422Z,0
2019-03-17T00:28:16.889Z,0
2019-03-17T00:29:01.097Z,0
2019-03-17T00:29:41.724Z,0
2019-03-17T00:30:23.085Z,0
2019-03-17T00:31:04.428Z,0
2019-03-17T00:31:45.801Z,0
2019-03-17T00:32:28.310Z,0
2019-03-17T00:33:08.723Z,0
2019-03-17T00:33:50.921Z,0
2019-03-17T00:34:43.856Z,0
2019-03-17T00:35:16.971Z,0
2019-03-17T00:35:57.603Z,0
2019-03-17T00:36:44.710Z,0
2019-03-17T00:37:26.100Z,0
2019-03-17T00:38:08.333Z,0
2019-03-17T00:38:48.659Z,0
2019-03-17T00:39:31.055Z,0
2019-03-17T00:40:11.512Z,0
2019-03-17T00:40:52.093Z,0
2019-03-17T00:41:37.427Z,0
2019-03-17T00:42:26.409Z,0
2019-03-17T00:43:06.904Z,0
2019-03-17T00:43:49.054Z,0
2019-03-17T00:44:31.275Z,0
2019-03-17T00:45:13.978Z,0
2019-03-17T00:45:55.250Z,0
2019-03-17T00:46:38.975Z,0
2019-03-17T00:47:20.409Z,0
2019-03-17T00:48:01.605Z,0
2019-03-17T00:48:42.431Z,0
2019-03-17T00:49:25.371Z,0
2019-03-17T00:50:10.395Z,0
2019-03-17T00:50:50.847Z,0
2019-03-17T00:51:34.814Z,0
2019-03-17T00:52:15.284Z,0
2019-03-17T00:52:55.852Z,0
2019-03-17T00:53:36.123Z,0
2019-03-17T00:54:16.990Z,0
2019-03-17T00:54:57.757Z,0
2019-03-17T00:55:49.851Z,0
2019-03-17T00:56:30.576Z,0
2019-03-17T00:57:11.114Z,0
2019-03-17T00:57:55.943Z,0
2019-03-17T00:58:40.057Z,0
2019-03-17T00:59:21.441Z,0
2019-03-17T01:00:03.926Z,0
2019-03-17T01:00:46.080Z,0
2019-03-17T01:01:29.368Z,0
2019-03-17T01:02:09.838Z,0
2019-03-17T01:02:53.090Z,0
2019-03-17T01:03:37.272Z,0
2019-03-17T01:04:18.416Z,0
2019-03-17T01:05:02.835Z,0
2019-03-17T01:05:43.195Z,0
2019-03-17T01:06:24.008Z,0
2019-03-17T01:07:08.330Z,0
2019-03-17T01:07:50.724Z,0
2019-03-17T01:08:31.487Z,0
2019-03-17T01:09:14.594Z,0
2019-03-17T01:09:55.871Z,0
2019-03-17T01:10:38.241Z,0
2019-03-17T01:11:18.729Z,0
2019-03-17T01:12:01.357Z,0
2019-03-17T01:12:44.675Z,0
2019-03-17T01:13:22.272Z,0
2019-03-17T01:14:06.482Z,0
2019-03-17T01:14:46.994Z,0
2019-03-17T01:15:29.018Z,0
2019-03-17T01:16:09.464Z,0
2019-03-17T01:16:51.029Z,0
2019-03-17T01:17:37.112Z,0
2019-03-17T01:18:23.725Z,0
2019-03-17T01:19:05.867Z,0
2019-03-17T01:21:56.556Z,0
2019-03-17T01:22:45.788Z,0
2019-03-17T01:23:26.291Z,0
2019-03-17T01:24:10.330Z,0
2019-03-17T01:24:52.525Z,0
2019-03-17T01:25:32.951Z,0
2019-03-17T01:26:17.154Z,0
2019-03-17T01:26:59.492Z,0
2019-03-17T01:27:41.670Z,0
2019-03-17T01:28:23.976Z,0
2019-03-17T01:29:06.322Z,0
2019-03-17T01:29:51.273Z,0
2019-03-17T01:30:35.069Z,0
2019-03-17T01:31:15.445Z,0
2019-03-17T01:31:59.731Z,0
2019-03-17T01:32:44.557Z,0
2019-03-17T01:33:28.060Z,0
2019-03-17T01:34:08.406Z,0
2019-03-17T01:34:49.920Z,0
2019-03-17T01:35:33.095Z,0
2019-03-17T01:36:13.620Z,0
2019-03-17T01:36:58.982Z,0
2019-03-17T01:37:42.788Z,0
2019-03-17T01:38:24.387Z,0
2019-03-17T01:39:04.707Z,0
2019-03-17T01:39:45.298Z,0
2019-03-17T01:40:33.902Z,0
2019-03-17T01:41:16.119Z,0
2019-03-17T01:41:57.534Z,0
2019-03-17T01:42:38.617Z,0
2019-03-17T01:43:19.378Z,0
2019-03-17T01:44:00.664Z,0
2019-03-17T01:44:42.828Z,0
2019-03-17T01:45:26.287Z,0
2019-03-17T01:46:07.263Z,0
2019-03-17T01:57:45.993Z,0
2019-03-17T02:00:50.550Z,0
2019-03-17T02:20:12.790Z,0
2019-03-17T02:20:53.273Z,0
2019-03-17T02:21:35.533Z,0
2019-03-17T02:22:16.031Z,0
2019-03-17T02:22:56.750Z,0
2019-03-17T02:23:36.937Z,0
2019-03-17T02:24:17.354Z,0
2019-03-17T02:24:59.341Z,0
2019-03-17T02:25:44.041Z,0
2019-03-17T02:26:24.780Z,0
2019-03-17T02:27:05.998Z,0
2019-03-17T02:27:48.217Z,0
2019-03-17T02:28:35.016Z,0
2019-03-17T02:29:17.163Z,0
2019-03-17T02:30:01.276Z,0
2019-03-17T02:30:43.819Z,0
2019-03-17T02:31:26.527Z,0
2019-03-17T02:32:08.953Z,0
2019-03-17T02:32:52.333Z,0
2019-03-17T02:33:35.027Z,0
2019-03-17T02:34:15.500Z,0
2019-03-17T02:34:59.540Z,0
2019-03-17T02:35:42.151Z,0
2019-03-17T02:36:23.837Z,0
2019-03-17T02:37:08.148Z,0
2019-03-17T02:37:48.800Z,0
2019-03-17T02:38:29.206Z,0
2019-03-17T02:39:09.844Z,0
2019-03-17T02:39:53.052Z,0
2019-03-17T02:40:35.711Z,0
2019-03-17T02:41:21.708Z,0
2019-03-17T02:42:04.382Z,0
2019-03-17T02:42:45.705Z,0
2019-03-17T02:43:26.783Z,0
2019-03-17T02:44:07.351Z,0
2019-03-17T02:44:52.426Z,0
2019-03-17T02:45:34.104Z,0
2019-03-17T02:46:18.327Z,0
2019-03-17T02:46:59.415Z,0
2019-03-17T02:47:41.688Z,0
2019-03-17T02:48:22.133Z,0
2019-03-17T02:49:03.941Z,0
2019-03-17T02:49:44.202Z,0
2019-03-17T02:50:28.012Z,0
2019-03-17T02:51:08.569Z,0
2019-03-17T02:51:51.466Z,0
2019-03-17T02:52:33.841Z,0
2019-03-17T02:53:15.589Z,0
2019-03-17T02:54:00.143Z,0
2019-03-17T02:54:43.367Z,0
2019-03-17T02:55:27.210Z,0
2019-03-17T02:56:08.632Z,0
2019-03-17T02:56:50.626Z,0
2019-03-17T02:57:32.033Z,0
2019-03-17T02:58:12.387Z,0
2019-03-17T02:58:53.900Z,0
2019-03-17T02:59:36.667Z,0
2019-03-17T03:00:18.583Z,0
2019-03-17T03:00:59.180Z,0
2019-03-17T03:01:41.218Z,0
2019-03-17T03:02:30.242Z,0
2019-03-17T03:03:12.622Z,0
2019-03-17T03:03:53.717Z,0
2019-03-17T03:04:35.988Z,0
2019-03-17T03:05:17.369Z,0
2019-03-17T03:05:57.593Z,0
2019-03-17T03:06:38.287Z,0
2019-03-17T03:07:20.470Z,0
2019-03-17T03:08:01.038Z,0
2019-03-17T03:08:43.806Z,0
2019-03-17T03:09:25.674Z,0
2019-03-17T03:10:09.282Z,0
2019-03-17T03:10:50.994Z,0
2019-03-17T03:11:33.141Z,0
2019-03-17T03:12:17.106Z,0
2019-03-17T03:12:58.199Z,0
2019-03-17T03:13:38.787Z,0
2019-03-17T03:14:21.716Z,0
2019-03-17T03:15:02.131Z,0
2019-03-17T03:15:45.456Z,0
2019-03-17T03:16:27.808Z,0
2019-03-17T03:17:10.341Z,0
2019-03-17T03:17:51.925Z,0
2019-03-17T03:18:34.579Z,0
2019-03-17T03:19:16.204Z,0
2019-03-17T03:19:58.785Z,0
2019-03-17T03:20:39.595Z,0
2019-03-17T03:21:20.961Z,0
2019-03-17T03:22:02.457Z,0
2019-03-17T03:22:42.916Z,0
2019-03-17T03:23:25.134Z,0
2019-03-17T03:24:05.774Z,0
2019-03-17T03:24:49.528Z,0
2019-03-17T03:25:33.020Z,0
2019-03-17T03:26:17.165Z,0
2019-03-17T03:26:57.543Z,0
2019-03-17T03:27:41.077Z,0
2019-03-17T03:28:24.202Z,0
2019-03-17T03:29:06.452Z,0
2019-03-17T03:29:51.023Z,0
2019-03-17T03:30:33.065Z,0
2019-03-17T03:31:13.463Z,0
2019-03-17T03:31:57.198Z,0
2019-03-17T03:32:39.003Z,0
2019-03-17T03:33:21.489Z,0
2019-03-17T03:34:03.655Z,0
2019-03-17T03:34:44.033Z,0
2019-03-17T03:35:25.554Z,0
2019-03-17T03:36:11.156Z,0
2019-03-17T03:36:53.776Z,0
2019-03-17T03:37:34.436Z,0
2019-03-17T03:38:16.376Z,0
2019-03-17T03:38:57.965Z,0
2019-03-17T03:39:38.662Z,0
2019-03-17T03:40:19.220Z,0
2019-03-17T03:41:01.076Z,0
2019-03-17T03:41:42.551Z,0
2019-03-17T03:42:23.580Z,0
2019-03-17T03:43:11.566Z,0
2019-03-17T03:43:54.908Z,0
2019-03-17T03:44:37.060Z,0
2019-03-17T03:45:20.006Z,0
2019-03-17T03:46:00.445Z,0
2019-03-17T03:46:41.118Z,0
2019-03-17T03:47:21.269Z,0
2019-03-17T03:48:03.108Z,0
2019-03-17T03:48:44.429Z,0
2019-03-17T03:49:27.200Z,0
2019-03-17T03:50:10.284Z,0
2019-03-17T03:50:50.659Z,0
2019-03-17T03:51:31.432Z,0
2019-03-17T03:52:12.736Z,0
2019-03-17T03:52:54.901Z,0
2019-03-17T03:53:35.310Z,0
2019-03-17T03:54:17.584Z,0
2019-03-17T03:54:58.814Z,0
2019-03-17T03:55:43.321Z,0
2019-03-17T03:56:25.349Z,0
2019-03-17T03:57:06.094Z,0
2019-03-17T03:57:49.227Z,0
2019-03-17T03:58:30.349Z,0
2019-03-17T03:59:13.094Z,0
2019-03-17T04:00:04.478Z,0
2019-03-17T04:00:47.133Z,0
2019-03-17T04:01:30.511Z,0
2019-03-17T04:02:14.081Z,0
2019-03-17T04:02:55.834Z,0
2019-03-17T04:03:36.152Z,0
2019-03-17T04:04:17.923Z,0
2019-03-17T04:05:02.073Z,0
2019-03-17T04:10:53.035Z,0
2019-03-17T04:15:45.114Z,0
2019-03-17T04:16:27.287Z,0
2019-03-17T04:17:08.543Z,0
2019-03-17T04:17:52.631Z,0
2019-03-17T04:18:40.360Z,0
2019-03-17T04:19:22.603Z,0
2019-03-17T04:20:05.964Z,0
2019-03-17T04:20:48.238Z,0
2019-03-17T04:21:28.574Z,0
2019-03-17T04:22:13.385Z,0
2019-03-17T04:22:54.413Z,0
2019-03-17T04:23:38.677Z,0
2019-03-17T04:24:20.746Z,0
2019-03-17T04:25:06.844Z,0
2019-03-17T04:25:49.198Z,0
2019-03-17T04:26:31.569Z,0
2019-03-17T04:27:12.474Z,0
2019-03-17T04:27:52.866Z,0
2019-03-17T05:14:48.195Z,0
2019-03-17T05:17:25.025Z,0
2019-03-17T05:53:27.410Z,0
2019-03-17T05:54:11.755Z,0
2019-03-17T05:54:52.339Z,0
2019-03-17T05:55:32.876Z,0
2019-03-17T05:56:15.059Z,0
2019-03-17T05:56:58.926Z,0
2019-03-17T05:57:41.365Z,0
2019-03-17T05:58:21.943Z,0
2019-03-17T05:59:02.353Z,0
2019-03-17T05:59:43.522Z,0
2019-03-17T06:00:27.383Z,0
2019-03-17T06:01:08.391Z,0
2019-03-17T06:01:51.451Z,0
2019-03-17T06:02:31.885Z,0
2019-03-17T06:03:14.190Z,0
2019-03-17T06:03:54.569Z,0
2019-03-17T06:04:39.489Z,0
2019-03-17T06:05:22.359Z,0
2019-03-17T06:06:03.233Z,0
2019-03-17T06:06:45.373Z,0
2019-03-17T06:13:51.219Z,0
2019-03-17T06:14:32.190Z,0
2019-03-17T06:15:20.218Z,0
2019-03-17T06:16:06.205Z,0
2019-03-17T06:16:46.550Z,0
2019-03-17T06:17:30.840Z,0
2019-03-17T06:18:14.147Z,0
2019-03-17T06:18:57.169Z,0
2019-03-17T06:19:38.528Z,0
2019-03-17T06:20:19.802Z,0
2019-03-17T06:21:02.248Z,0
2019-03-17T06:44:05.117Z,0
2019-03-17T06:44:46.914Z,0
2019-03-17T06:45:30.109Z,0
2019-03-17T06:46:10.835Z,0
2019-03-17T06:46:51.774Z,0
2019-03-17T06:47:35.063Z,0
2019-03-17T06:48:18.201Z,0
2019-03-17T06:48:59.296Z,0
2019-03-17T06:49:43.195Z,0
2019-03-17T06:50:28.180Z,0
2019-03-17T06:51:08.482Z,0
2019-03-17T06:51:48.961Z,0
2019-03-17T06:52:33.203Z,0
2019-03-17T06:53:23.289Z,0
2019-03-17T06:54:06.170Z,0
2019-03-17T06:54:48.475Z,0
2019-03-17T06:55:28.765Z,0
2019-03-17T06:56:09.220Z,0
2019-03-17T06:56:53.182Z,0
2019-03-17T06:57:34.029Z,0
2019-03-17T06:58:14.492Z,0
2019-03-17T06:58:54.836Z,5
2019-03-17T06:59:37.898Z,5
2019-03-17T07:00:18.473Z,0
2019-03-17T07:01:00.648Z,0
2019-03-17T07:01:45.259Z,0
2019-03-17T07:02:25.684Z,0
2019-03-17T07:03:06.324Z,0
2019-03-17T07:03:48.309Z,0
2019-03-17T07:04:28.887Z,0
2019-03-17T07:05:09.081Z,0
2019-03-17T07:05:51.159Z,0
2019-03-17T07:06:32.134Z,0
2019-03-17T07:07:16.342Z,0
2019-03-17T07:07:58.523Z,0
2019-03-17T07:08:38.791Z,0
2019-03-17T07:09:22.092Z,0
2019-03-17T07:10:02.548Z,0
2019-03-17T07:10:44.876Z,0
2019-03-17T07:11:27.289Z,0
2019-03-17T07:12:07.448Z,0
2019-03-17T07:12:48.586Z,0
2019-03-17T07:13:29.080Z,0
2019-03-17T07:14:11.126Z,0
2019-03-17T07:14:52.793Z,0
2019-03-17T07:15:34.057Z,5
2019-03-17T07:16:14.514Z,5
2019-03-17T07:16:57.662Z,5
2019-03-17T07:29:49.465Z,10
2019-03-17T07:30:30.862Z,10
2019-03-17T07:31:13.451Z,5
2019-03-17T07:31:54.081Z,5
2019-03-17T07:32:34.471Z,5
2019-03-17T07:33:22.008Z,5
2019-03-17T07:34:04.039Z,5
2019-03-17T07:34:46.238Z,0
2019-03-17T07:35:28.417Z,0
2019-03-17T07:36:11.509Z,0
2019-03-17T07:36:55.581Z,0
2019-03-17T07:37:37.815Z,0
2019-03-17T07:38:20.063Z,0
2019-03-17T07:39:11.015Z,0
2019-03-17T07:39:43.485Z,0
2019-03-17T07:40:23.864Z,0
2019-03-17T07:41:04.262Z,5
2019-03-17T07:41:44.653Z,5
2019-03-17T07:42:25.522Z,5
2019-03-17T07:43:05.442Z,5
2019-03-17T07:43:48.602Z,5
2019-03-17T07:44:28.936Z,5
2019-03-17T07:45:10.627Z,10
2019-03-17T07:45:52.467Z,10
2019-03-17T07:46:33.753Z,10
2019-03-17T07:47:14.143Z,10
2019-03-17T07:47:54.475Z,10
2019-03-17T07:48:35.013Z,10
2019-03-17T07:49:22.529Z,10
2019-03-17T07:50:03.118Z,10
2019-03-17T07:50:43.588Z,10
2019-03-17T07:51:26.533Z,10
2019-03-17T07:52:07.871Z,10
2019-03-17T07:52:48.280Z,10
2019-03-17T07:53:29.595Z,10
2019-03-17T07:54:11.620Z,10
2019-03-17T07:54:52.534Z,10
2019-03-17T07:55:32.853Z,10
2019-03-17T07:56:13.217Z,10
2019-03-17T07:56:54.530Z,10
2019-03-17T07:57:35.099Z,10
2019-03-17T07:58:15.499Z,10
2019-03-17T07:58:56.096Z,10
2019-03-17T07:59:37.452Z,10
2019-03-17T08:00:17.731Z,10
2019-03-17T08:01:01.154Z,10
2019-03-17T08:01:43.117Z,10
2019-03-17T08:02:23.514Z,10
2019-03-17T08:03:03.863Z,10
2019-03-17T08:03:44.265Z,10
2019-03-17T08:04:24.734Z,10
2019-03-17T08:05:05.395Z,10
2019-03-17T08:05:45.648Z,10
2019-03-17T08:06:26.175Z,10
2019-03-17T08:07:06.680Z,10
2019-03-17T08:07:46.928Z,10
2019-03-17T08:08:27.318Z,10
2019-03-17T08:09:08.782Z,10
2019-03-17T08:09:49.563Z,10
2019-03-17T08:10:29.986Z,10
2019-03-17T08:11:10.377Z,10
2019-03-17T08:11:50.748Z,10
2019-03-17T08:12:32.048Z,10
2019-03-17T08:13:13.512Z,10
2019-03-17T08:13:54.745Z,10
2019-03-17T08:14:35.531Z,10
2019-03-17T08:15:19.816Z,10
2019-03-17T08:16:01.152Z,10
2019-03-17T08:16:45.279Z,10
2019-03-17T08:17:29.590Z,10
2019-03-17T08:18:09.930Z,10
2019-03-17T08:19:00.882Z,10
2019-03-17T08:19:41.345Z,10
2019-03-17T08:20:24.254Z,10
2019-03-17T08:21:04.540Z,10
2019-03-17T08:21:45.895Z,10
2019-03-17T08:22:26.641Z,10
2019-03-17T08:23:07.027Z,10
2019-03-17T08:23:51.307Z,10
2019-03-17T08:24:31.903Z,15
2019-03-17T08:25:13.837Z,15
2019-03-17T08:25:55.168Z,15
2019-03-17T08:26:37.257Z,15
2019-03-17T08:27:18.676Z,15
2019-03-17T08:28:00.610Z,15
2019-03-17T08:28:41.033Z,15
2019-03-17T08:29:21.470Z,15
2019-03-17T08:30:01.775Z,15
2019-03-17T08:30:52.340Z,15
2019-03-17T08:31:24.620Z,15
2019-03-17T08:32:07.145Z,15
2019-03-17T08:32:48.226Z,15
2019-03-17T08:33:29.496Z,15
2019-03-17T08:34:09.952Z,15
2019-03-17T08:34:54.784Z,15
2019-03-17T08:35:36.894Z,20
2019-03-17T08:36:17.339Z,20
2019-03-17T08:36:57.803Z,20
2019-03-17T08:37:38.225Z,20
2019-03-17T08:38:22.019Z,20
2019-03-17T08:39:01.911Z,20
2019-03-17T08:39:44.214Z,20
2019-03-17T08:40:24.617Z,20
2019-03-17T08:41:06.677Z,25
2019-03-17T08:41:48.679Z,25
2019-03-17T08:42:30.686Z,25
2019-03-17T08:43:11.872Z,25
2019-03-17T08:43:54.720Z,30
2019-03-17T08:44:37.079Z,30
2019-03-17T08:45:22.457Z,30
2019-03-17T08:46:04.735Z,30
2019-03-17T08:46:47.183Z,30
2019-03-17T08:47:36.665Z,30
2019-03-17T08:48:18.693Z,30
2019-03-17T08:49:00.977Z,30
2019-03-17T08:49:43.256Z,30
2019-03-17T08:50:26.201Z,30
2019-03-17T08:51:07.533Z,30
2019-03-17T08:51:47.955Z,30
2019-03-17T08:52:29.839Z,30
2019-03-17T08:53:22.122Z,25
2019-03-17T08:54:02.479Z,25
2019-03-17T08:54:44.565Z,25
2019-03-17T08:55:24.922Z,25
2019-03-17T08:56:05.715Z,25
2019-03-17T08:56:46.029Z,25
2019-03-17T08:57:28.657Z,25
2019-03-17T08:58:09.321Z,25
2019-03-17T08:58:49.552Z,25
2019-03-17T08:59:29.920Z,25
2019-03-17T09:00:14.737Z,25
2019-03-17T09:00:56.264Z,25
2019-03-17T09:01:40.589Z,25
2019-03-17T09:02:23.224Z,25
2019-03-17T09:03:04.734Z,25
2019-03-17T09:03:48.028Z,25
2019-03-17T09:04:28.369Z,25
2019-03-17T09:05:13.609Z,25
2019-03-17T09:06:00.047Z,25
2019-03-17T09:06:41.408Z,25
2019-03-17T09:07:23.600Z,25
2019-03-17T09:08:04.151Z,25
2019-03-17T09:08:46.449Z,25
2019-03-17T09:09:27.087Z,25
2019-03-17T09:10:08.455Z,25
2019-03-17T09:10:48.820Z,25
2019-03-17T09:11:29.925Z,25
2019-03-17T09:12:10.325Z,25
2019-03-17T09:12:50.694Z,20
2019-03-17T09:13:31.933Z,20
2019-03-17T09:14:12.317Z,20
2019-03-17T09:14:56.345Z,20
2019-03-17T09:15:36.652Z,20
2019-03-17T09:16:17.101Z,20
2019-03-17T09:16:57.487Z,20
2019-03-17T09:17:37.911Z,20
2019-03-17T09:18:18.231Z,20
2019-03-17T09:18:58.590Z,20
2019-03-17T09:19:40.893Z,20
2019-03-17T09:20:22.380Z,20
2019-03-17T09:21:03.255Z,20
2019-03-17T09:21:44.449Z,20
2019-03-17T09:22:24.781Z,25
2019-03-17T09:23:06.306Z,25
2019-03-17T09:23:46.752Z,30
2019-03-17T09:24:28.236Z,30
2019-03-17T09:25:08.442Z,35
2019-03-17T09:25:52.590Z,35
2019-03-17T09:26:34.583Z,35
2019-03-17T09:27:17.250Z,35
2019-03-17T09:27:57.387Z,40
2019-03-17T09:28:37.790Z,40
2019-03-17T09:29:18.307Z,40
2019-03-17T09:30:01.660Z,40
2019-03-17T09:30:41.973Z,40
2019-03-17T09:31:22.394Z,40
2019-03-17T09:32:05.597Z,40
2019-03-17T09:32:48.652Z,40
2019-03-17T09:33:29.959Z,40
2019-03-17T09:34:10.762Z,40
2019-03-17T09:34:51.055Z,45
2019-03-17T09:35:44.425Z,45
2019-03-17T09:36:24.756Z,45
2019-03-17T09:37:08.909Z,45
2019-03-17T09:37:49.004Z,45
2019-03-17T09:38:29.438Z,45
2019-03-17T09:39:19.200Z,45
2019-03-17T09:39:59.447Z,50
2019-03-17T09:40:39.797Z,50
2019-03-17T09:41:22.332Z,50
2019-03-17T09:42:06.178Z,50
2019-03-17T09:42:48.427Z,50
2019-03-17T09:43:31.211Z,50
2019-03-17T09:44:13.508Z,50
2019-03-17T09:44:54.023Z,50
2019-03-17T09:45:34.327Z,55
2019-03-17T09:46:16.971Z,55
2019-03-17T09:47:01.816Z,60
2019-03-17T09:47:42.542Z,65
2019-03-17T09:48:26.334Z,65
2019-03-17T09:49:09.279Z,65
2019-03-17T09:49:49.601Z,65
2019-03-17T09:50:30.068Z,60
2019-03-17T09:51:12.637Z,60
2019-03-17T10:02:39.802Z,45
2019-03-17T10:03:26.025Z,45
2019-03-17T10:06:25.007Z,40
2019-03-17T10:07:13.705Z,40
2019-03-17T10:11:10.781Z,45
2019-03-17T10:11:50.768Z,45
2019-03-17T10:12:32.136Z,45
2019-03-17T10:13:12.514Z,40
2019-03-17T10:13:55.596Z,40
2019-03-17T10:14:55.408Z,40
2019-03-17T10:15:35.909Z,35
2019-03-17T10:16:16.351Z,40
2019-03-17T10:16:57.169Z,35
2019-03-17T10:17:38.546Z,35
2019-03-17T10:18:19.821Z,35
2019-03-17T10:19:02.068Z,30
2019-03-17T10:19:44.367Z,30
2019-03-17T10:20:25.583Z,30
2019-03-17T10:21:06.994Z,30
2019-03-17T10:21:47.300Z,25
2019-03-17T10:22:27.967Z,25
2019-03-17T10:23:08.306Z,25
2019-03-17T10:23:50.750Z,30
2019-03-17T10:24:33.836Z,30
2019-03-17T10:25:15.185Z,30
2019-03-17T10:25:55.591Z,25
2019-03-17T10:26:36.182Z,25
2019-03-17T10:28:09.221Z,20
2019-03-17T10:28:51.312Z,20
2019-03-17T11:07:25.186Z,55
2019-03-17T11:08:05.668Z,60
2019-03-17T11:08:45.954Z,50
2019-03-17T11:09:27.879Z,45
2019-03-17T11:10:08.336Z,45
2019-03-17T11:10:50.568Z,40
2019-03-17T11:11:30.852Z,50
2019-03-17T11:12:11.253Z,45
2019-03-17T11:12:53.324Z,45
2019-03-17T11:13:34.622Z,45
2019-03-17T11:14:16.047Z,45
2019-03-17T11:14:56.907Z,40
2019-03-17T11:15:37.245Z,35
2019-03-17T11:16:17.627Z,35
2019-03-17T11:16:58.029Z,35
2019-03-17T11:17:38.429Z,35
2019-03-17T11:18:19.076Z,30
2019-03-17T11:19:00.198Z,30
2019-03-17T11:19:40.611Z,30
2019-03-17T11:20:21.038Z,30
2019-03-17T11:21:01.537Z,55
2019-03-17T11:21:41.819Z,55
2019-03-17T11:22:25.110Z,55
2019-03-17T11:23:05.343Z,55
2019-03-17T11:23:45.741Z,60
2019-03-17T11:24:26.152Z,55
2019-03-17T11:25:10.410Z,55
2019-03-17T11:25:50.923Z,55
2019-03-17T11:26:32.222Z,55
2019-03-17T11:27:12.724Z,60
2019-03-17T11:27:54.324Z,60
2019-03-17T11:28:38.481Z,60
2019-03-17T11:29:19.740Z,55
2019-03-17T11:30:02.076Z,60
2019-03-17T11:30:42.313Z,55
2019-03-17T11:31:23.651Z,60
2019-03-17T11:32:06.390Z,60
2019-03-17T11:32:48.259Z,60
2019-03-17T11:33:28.955Z,60
2019-03-17T11:34:11.237Z,50
2019-03-17T11:34:51.643Z,35
2019-03-17T11:35:33.770Z,60
2019-03-17T11:36:14.333Z,60
2019-03-17T11:36:54.855Z,55
2019-03-17T11:37:38.624Z,65
2019-03-17T11:38:19.108Z,45
2019-03-17T11:39:01.532Z,70
2019-03-17T11:39:41.923Z,65
2019-03-17T11:40:22.259Z,70
2019-03-17T11:41:03.331Z,55
2019-03-17T11:41:43.717Z,50
2019-03-17T11:42:24.619Z,45
2019-03-17T11:43:04.997Z,40
2019-03-17T11:43:49.239Z,45
2019-03-17T11:44:30.647Z,65
2019-03-17T11:45:10.975Z,65
2019-03-17T11:45:51.422Z,65
2019-03-17T11:46:31.756Z,40
2019-03-17T11:47:13.712Z,35
2019-03-17T11:47:54.337Z,35
2019-03-17T11:48:38.142Z,40
2019-03-17T11:49:23.311Z,50
2019-03-17T11:50:03.730Z,40
2019-03-17T11:50:44.282Z,40
2019-03-17T11:51:25.562Z,40
2019-03-17T11:52:06.901Z,40
2019-03-17T11:52:47.737Z,50
2019-03-17T11:53:29.498Z,60
2019-03-17T11:54:11.111Z,60
2019-03-17T11:54:53.952Z,65
2019-03-17T11:55:35.234Z,65
2019-03-17T11:56:15.858Z,65
2019-03-17T11:56:57.139Z,70
2019-03-17T11:57:37.626Z,65
2019-03-17T11:58:18.036Z,65
2019-03-17T11:58:59.005Z,65
2019-03-17T11:59:39.705Z,65
2019-03-17T12:00:23.227Z,65
2019-03-17T12:01:04.346Z,60
2019-03-17T12:01:46.784Z,60
2019-03-17T12:02:27.271Z,60
2019-03-17T12:03:07.785Z,60
2019-03-17T12:03:49.203Z,60
2019-03-17T12:04:29.782Z,50
2019-03-17T12:05:13.284Z,60
2019-03-17T12:05:57.783Z,60
2019-03-17T12:06:38.171Z,60
2019-03-17T12:07:18.566Z,65
2019-03-17T12:08:02.807Z,65
2019-03-17T12:08:44.081Z,65
2019-03-17T12:09:29.170Z,60
2019-03-17T12:10:06.692Z,65
2019-03-17T12:10:49.772Z,65
2019-03-17T12:11:30.211Z,65
2019-03-17T12:12:10.502Z,65
2019-03-17T12:12:50.872Z,65
2019-03-17T12:13:35.294Z,65
2019-03-17T12:14:15.712Z,70
2019-03-17T12:14:56.186Z,70
2019-03-17T12:15:37.898Z,70
2019-03-17T12:16:20.748Z,70
2019-03-17T12:17:01.257Z,70
2019-03-17T12:17:41.727Z,75
2019-03-17T12:18:23.932Z,70
2019-03-17T12:19:04.387Z,70
2019-03-17T12:19:44.729Z,50
2019-03-17T12:20:28.924Z,50
2019-03-17T12:21:09.353Z,75
2019-03-17T12:21:52.571Z,75
2019-03-17T12:22:33.062Z,70
2019-03-17T12:23:15.193Z,70
2019-03-17T12:23:57.253Z,55
2019-03-17T12:24:40.901Z,45
2019-03-17T12:25:24.297Z,45
2019-03-17T12:26:04.769Z,50
2019-03-17T12:26:45.651Z,50
2019-03-17T12:27:29.769Z,50
2019-03-17T12:28:10.386Z,80
2019-03-17T12:28:57.252Z,80
2019-03-17T12:29:37.771Z,80
2019-03-17T12:30:19.141Z,50
2019-03-17T12:31:03.301Z,65
2019-03-17T12:31:44.736Z,50
2019-03-17T12:32:25.156Z,50
2019-03-17T12:33:06.532Z,50
2019-03-17T12:33:49.906Z,70
2019-03-17T12:34:31.908Z,70
2019-03-17T12:35:12.531Z,55
2019-03-17T12:35:52.726Z,65
2019-03-17T12:36:33.186Z,50
2019-03-17T12:37:15.534Z,45
2019-03-17T12:37:57.177Z,50
2019-03-17T12:38:39.034Z,50
2019-03-17T12:39:23.471Z,50
2019-03-17T12:40:05.970Z,45
2019-03-17T12:40:52.173Z,40
2019-03-17T12:41:33.642Z,70
2019-03-17T12:42:14.134Z,45
2019-03-17T12:42:54.601Z,50
2019-03-17T12:43:36.935Z,75
2019-03-17T12:44:20.644Z,75
2019-03-17T12:45:02.911Z,75
2019-03-17T12:45:48.736Z,75
2019-03-17T12:46:30.653Z,75
2019-03-17T12:47:12.179Z,75
2019-03-17T12:47:52.589Z,75
2019-03-17T12:48:32.990Z,75
2019-03-17T12:49:14.499Z,75
2019-03-17T12:49:56.753Z,75
2019-03-17T12:50:38.956Z,75
2019-03-17T12:51:20.138Z,70
2019-03-17T12:52:02.744Z,70
2019-03-17T12:52:44.866Z,70
2019-03-17T12:53:26.857Z,65
2019-03-17T12:54:08.422Z,65
2019-03-17T12:54:48.494Z,65
2019-03-17T12:55:29.076Z,65
2019-03-17T12:56:09.335Z,65
2019-03-17T12:56:51.531Z,65
2019-03-17T12:57:34.064Z,60
2019-03-17T12:58:14.925Z,65
2019-03-17T12:58:54.811Z,60
2019-03-17T12:59:35.551Z,65
2019-03-17T13:00:20.201Z,70
2019-03-17T13:01:05.570Z,75
2019-03-17T13:01:45.761Z,75
2019-03-17T13:02:31.312Z,70
2019-03-17T13:03:13.502Z,70
2019-03-17T13:03:56.036Z,65
2019-03-17T13:04:36.337Z,65
2019-03-17T13:05:18.442Z,65
2019-03-17T13:05:59.059Z,50
2019-03-17T13:06:41.395Z,65
2019-03-17T13:07:22.728Z,60
2019-03-17T13:08:04.134Z,60
2019-03-17T13:08:45.247Z,50
2019-03-17T13:09:26.105Z,60
2019-03-17T13:10:15.371Z,55
2019-03-17T13:10:46.861Z,55
2019-03-17T13:11:28.142Z,50
2019-03-17T13:12:09.542Z,50
2019-03-17T13:12:49.845Z,50
2019-03-17T13:13:31.379Z,55
2019-03-17T13:14:11.754Z,55
2019-03-17T13:14:52.083Z,55
2019-03-17T13:15:33.288Z,50
2019-03-17T13:16:16.422Z,50
2019-03-17T13:16:57.423Z,45
2019-03-17T13:17:37.748Z,55
2019-03-17T13:18:18.268Z,55
2019-03-17T13:18:58.991Z,60
2019-03-17T13:19:39.410Z,55
2019-03-17T13:20:22.364Z,60
2019-03-17T13:21:02.987Z,40
2019-03-17T13:22:37.876Z,40
2019-03-17T13:23:18.569Z,40
2019-03-17T13:23:58.816Z,35
2019-03-17T13:24:41.982Z,40
2019-03-17T13:25:23.422Z,40
2019-03-17T13:26:05.849Z,35
2019-03-17T13:26:46.298Z,35
2019-03-17T13:27:28.076Z,35
2019-03-17T13:28:07.952Z,35
2019-03-17T13:28:48.387Z,35
2019-03-17T13:29:30.671Z,35
2019-03-17T13:30:11.142Z,30
2019-03-17T13:30:51.497Z,25
2019-03-17T13:31:37.220Z,25
2019-03-17T13:32:19.628Z,25
2019-03-17T13:33:01.952Z,20
2019-03-17T13:33:42.491Z,20
2019-03-17T13:34:26.401Z,20
2019-03-17T13:35:08.015Z,20
2019-03-17T13:35:48.687Z,20
2019-03-17T13:36:32.143Z,20
2019-03-17T13:37:13.027Z,25
2019-03-17T13:37:56.426Z,25
2019-03-17T13:38:40.548Z,25
2019-03-17T13:39:20.874Z,25
2019-03-17T13:40:01.641Z,25
2019-03-17T13:40:42.453Z,25
2019-03-17T13:41:23.411Z,25
2019-03-17T13:42:03.893Z,25
2019-03-17T13:42:46.169Z,25
2019-03-17T13:43:26.587Z,30
2019-03-17T13:44:06.984Z,35
2019-03-17T13:44:51.238Z,45
2019-03-17T13:45:31.693Z,50
2019-03-17T13:46:12.129Z,50
2019-03-17T13:46:55.261Z,50
2019-03-17T13:47:38.445Z,55
2019-03-17T13:48:22.310Z,55
2019-03-17T13:49:05.328Z,55
2019-03-17T13:49:47.615Z,50
2019-03-17T13:50:31.190Z,55
2019-03-17T13:51:11.569Z,55
2019-03-17T13:51:53.677Z,55
2019-03-17T13:52:36.027Z,50